Time;durP1;ratioP1;P1;durP2;ratioP2;P2;SDS_P1;SDS_P2;PMS_P1;PMS_P2;Temp;Humidity;BMP_temperature;BMP_pressure;BME280_temperature;BME280_humidity;BME280_pressure;Samples;Min_cycle;Max_cycle;Signal;HPM_P1;HPM_P2
2022/05/20 00:01:08;;;;;;;21.23;19.10;;;17.30;99.90;;;;;;5053052;28;20250;-53
2022/05/20 00:03:37;;;;;;;22.33;19.77;;;17.20;99.90;;;;;;5049447;28;20230;-56
2022/05/20 00:06:04;;;;;;;21.37;19.27;;;17.20;99.90;;;;;;5049255;28;20298;-53
2022/05/20 00:08:31;;;;;;;22.67;20.23;;;17.20;99.90;;;;;;5062781;28;20194;-51
2022/05/20 00:10:59;;;;;;;24.83;21.87;;;17.10;99.90;;;;;;5047584;28;20196;-55
2022/05/20 00:13:28;;;;;;;26.70;21.20;;;17.00;99.90;;;;;;5040968;28;20209;-51
2022/05/20 00:15:55;;;;;;;25.97;21.20;;;17.00;99.90;;;;;;5048784;28;20254;-52
2022/05/20 00:18:22;;;;;;;23.90;21.40;;;17.00;99.90;;;;;;5055762;28;20191;-52
2022/05/20 00:20:50;;;;;;;27.57;22.40;;;16.90;99.90;;;;;;5054073;28;20230;-53
2022/05/20 00:23:16;;;;;;;25.60;22.67;;;16.90;99.90;;;;;;5047054;28;20206;-53
2022/05/20 00:25:46;;;;;;;24.67;22.20;;;16.90;99.90;;;;;;5047264;28;20219;-55
2022/05/20 00:28:15;;;;;;;25.70;22.60;;;16.90;99.90;;;;;;5041571;28;26397;-49
2022/05/20 00:30:42;;;;;;;24.77;22.10;;;16.90;99.90;;;;;;5050155;28;20285;-49
2022/05/20 00:33:09;;;;;;;28.07;23.57;;;16.80;99.90;;;;;;5049776;28;20298;-54
2022/05/20 00:35:36;;;;;;;27.63;24.67;;;16.80;99.90;;;;;;5049792;28;20604;-52
2022/05/20 00:38:04;;;;;;;30.23;23.97;;;16.80;99.90;;;;;;5058634;28;20236;-57
2022/05/20 00:40:32;;;;;;;27.77;23.57;;;16.70;99.90;;;;;;5050161;28;20195;-53
2022/05/20 00:43:11;;;;;;;28.20;23.87;;;16.80;99.90;;;;;;5058715;28;20233;-54
2022/05/20 00:45:39;;;;;;;27.80;24.90;;;16.80;99.90;;;;;;5049697;28;20207;-49
2022/05/20 00:48:06;;;;;;;27.23;24.30;;;16.80;99.90;;;;;;5050944;28;20229;-56
2022/05/20 00:50:34;;;;;;;27.20;24.43;;;16.80;99.90;;;;;;5060249;28;20205;-49
2022/05/20 00:53:02;;;;;;;28.97;25.20;;;16.80;99.90;;;;;;5042356;28;20245;-55
2022/05/20 00:55:30;;;;;;;31.97;25.47;;;16.80;99.90;;;;;;5042215;28;20196;-52
2022/05/20 00:58:04;;;;;;;29.03;25.80;;;16.70;99.90;;;;;;5042988;28;20216;-54
2022/05/20 01:00:33;;;;;;;32.20;25.87;;;16.70;99.90;;;;;;5042208;28;20209;-52
2022/05/20 01:03:04;;;;;;;33.67;25.17;;;16.60;99.90;;;;;;5046650;28;20264;-55
2022/05/20 01:05:35;;;;;;;30.63;24.27;;;16.50;99.90;;;;;;5047381;28;20207;-54
2022/05/20 01:08:02;;;;;;;28.00;23.40;;;16.40;99.90;;;;;;5056165;28;20227;-54
2022/05/20 01:10:31;;;;;;;27.40;23.17;;;16.30;99.90;;;;;;5047707;28;20222;-49
2022/05/20 01:12:58;;;;;;;27.97;23.67;;;16.20;99.90;;;;;;5051795;28;20202;-54
2022/05/20 01:15:26;;;;;;;33.03;26.47;;;16.20;99.90;;;;;;5039500;28;20213;-48
2022/05/20 01:17:55;;;;;;;33.23;25.47;;;16.00;99.90;;;;;;5058800;28;20218;-56
2022/05/20 01:20:25;;;;;;;33.53;25.47;;;16.00;99.90;;;;;;5041159;28;20214;-49
2022/05/20 01:23:05;;;;;;;33.57;27.67;;;15.90;99.90;;;;;;5049395;28;20207;-50
2022/05/20 01:25:33;;;;;;;38.77;28.03;;;15.90;99.90;;;;;;5049537;28;20237;-55
2022/05/20 01:28:00;;;;;;;31.33;26.60;;;15.90;99.90;;;;;;5053575;28;20566;-54
2022/05/20 01:30:30;;;;;;;30.97;24.93;;;15.80;99.90;;;;;;5033334;28;20213;-49
2022/05/20 01:32:59;;;;;;;29.93;25.43;;;15.70;99.90;;;;;;5052526;28;20195;-53
2022/05/20 01:35:33;;;;;;;31.53;25.13;;;15.50;99.90;;;;;;5047995;28;20195;-52
2022/05/20 01:38:02;;;;;;;31.43;25.80;;;15.30;99.90;;;;;;5052422;28;20206;-50
2022/05/20 01:40:38;;;;;;;35.20;25.10;;;15.30;99.90;;;;;;5051666;28;20186;-49
2022/05/20 01:43:11;;;;;;;33.80;26.00;;;15.10;99.90;;;;;;5047028;28;20198;-51
2022/05/20 01:45:45;;;;;;;31.83;24.47;;;15.10;99.90;;;;;;5050232;28;20200;-55
2022/05/20 01:48:20;;;;;;;36.67;26.90;;;15.10;99.90;;;;;;5033657;28;20886;-55
2022/05/20 01:50:52;;;;;;;37.07;26.93;;;15.00;99.90;;;;;;5047206;28;20202;-55
2022/05/20 01:53:28;;;;;;;39.93;28.63;;;15.00;99.90;;;;;;5045029;28;20199;-53
2022/05/20 01:56:01;;;;;;;37.33;26.13;;;14.90;99.90;;;;;;5055909;28;20236;-52
2022/05/20 01:58:33;;;;;;;41.67;27.63;;;14.70;99.90;;;;;;5047609;28;20986;-54
2022/05/20 02:01:06;;;;;;;40.13;27.40;;;14.60;99.90;;;;;;5042148;28;20889;-53
2022/05/20 02:03:40;;;;;;;35.53;25.70;;;14.60;99.90;;;;;;5058969;28;20675;-53
2022/05/20 02:06:12;;;;;;;34.37;25.20;;;14.50;99.90;;;;;;5039858;28;20207;-54
2022/05/20 02:08:44;;;;;;;37.53;24.17;;;14.40;99.90;;;;;;5047616;28;20207;-55
2022/05/20 02:11:16;;;;;;;31.33;22.60;;;14.30;99.90;;;;;;5049169;28;20202;-54
2022/05/20 02:13:50;;;;;;;29.17;21.70;;;14.40;99.90;;;;;;5055925;28;20202;-53
2022/05/20 02:16:20;;;;;;;26.50;19.50;;;14.40;99.90;;;;;;5044219;28;20219;-55
2022/05/20 02:18:52;;;;;;;25.17;18.60;;;14.40;99.90;;;;;;5043286;28;20647;-54
2022/05/20 02:21:23;;;;;;;23.73;18.47;;;14.30;99.90;;;;;;5049759;28;20275;-51
2022/05/20 02:23:58;;;;;;;20.43;17.73;;;14.30;99.90;;;;;;5047945;28;20199;-54
2022/05/20 02:26:28;;;;;;;20.57;17.57;;;14.30;99.90;;;;;;5051752;28;20214;-48
2022/05/20 02:29:01;;;;;;;24.37;16.80;;;14.40;99.90;;;;;;5048761;28;20553;-56
2022/05/20 02:31:34;;;;;;;21.73;16.80;;;14.30;99.90;;;;;;5051135;28;20902;-53
2022/05/20 02:34:02;;;;;;;26.10;17.13;;;14.40;99.90;;;;;;5035530;28;20207;-55
2022/05/20 02:36:32;;;;;;;20.30;14.83;;;14.30;99.90;;;;;;5054068;28;20211;-55
2022/05/20 02:39:01;;;;;;;18.37;14.47;;;14.20;99.90;;;;;;5049086;28;20563;-52
2022/05/20 02:41:28;;;;;;;15.63;13.30;;;14.10;99.90;;;;;;5044474;28;20215;-53
2022/05/20 02:43:55;;;;;;;14.07;12.53;;;14.10;99.90;;;;;;5055290;28;20235;-54
2022/05/20 02:46:22;;;;;;;15.50;13.10;;;14.00;99.90;;;;;;5057120;28;20223;-51
2022/05/20 02:48:49;;;;;;;18.63;13.07;;;13.90;99.90;;;;;;5043343;28;20218;-51
2022/05/20 02:51:17;;;;;;;15.30;12.13;;;13.80;99.90;;;;;;5044423;28;20183;-55
2022/05/20 02:53:45;;;;;;;16.03;12.03;;;13.80;99.90;;;;;;5049264;28;20288;-50
2022/05/20 02:56:13;;;;;;;16.97;12.70;;;13.80;99.90;;;;;;5050900;28;20199;-56
2022/05/20 03:04:12;;;;;;;16.73;12.20;;;13.60;99.90;;;;;;5038040;28;20199;-53
2022/05/20 03:06:41;;;;;;;17.57;10.80;;;13.60;99.90;;;;;;5055895;28;20275;-52
2022/05/20 03:09:10;;;;;;;16.37;10.47;;;13.60;99.90;;;;;;5052248;28;20237;-56
2022/05/20 03:11:39;;;;;;;14.03;10.50;;;13.60;99.90;;;;;;5051294;28;20203;-56
2022/05/20 03:14:08;;;;;;;12.50;9.40;;;13.60;99.90;;;;;;5045312;28;20275;-55
2022/05/20 03:16:36;;;;;;;11.20;9.40;;;13.60;99.90;;;;;;5061472;28;20249;-53
2022/05/20 03:19:04;;;;;;;11.83;9.33;;;13.60;99.90;;;;;;5054665;28;20210;-55
2022/05/20 03:21:31;;;;;;;9.97;7.97;;;13.60;99.90;;;;;;5054340;28;20187;-52
2022/05/20 03:23:59;;;;;;;13.77;8.73;;;13.60;99.90;;;;;;5049699;28;20575;-55
2022/05/20 03:26:27;;;;;;;9.47;7.07;;;13.50;99.90;;;;;;5044973;28;20203;-54
2022/05/20 03:28:57;;;;;;;9.23;6.43;;;13.50;99.90;;;;;;5048278;28;20214;-54
2022/05/20 03:31:24;;;;;;;8.87;5.80;;;13.50;99.90;;;;;;5046781;28;20202;-54
2022/05/20 03:33:51;;;;;;;9.67;7.00;;;13.50;99.90;;;;;;5051342;28;20195;-53
2022/05/20 03:36:18;;;;;;;11.23;7.83;;;13.50;99.90;;;;;;5040827;28;20754;-55
2022/05/20 03:38:45;;;;;;;12.53;8.07;;;13.60;99.90;;;;;;5049631;28;20183;-54
2022/05/20 03:41:12;;;;;;;14.23;7.00;;;13.60;99.90;;;;;;5047347;28;20226;-54
2022/05/20 03:43:39;;;;;;;13.33;7.07;;;13.60;99.90;;;;;;5052185;28;20341;-54
2022/05/20 03:46:08;;;;;;;7.83;7.03;;;13.60;99.90;;;;;;5056585;28;20206;-51
2022/05/20 03:48:35;;;;;;;9.47;6.53;;;13.60;99.90;;;;;;5058048;28;20258;-54
2022/05/20 03:51:08;;;;;;;10.33;7.20;;;13.60;99.90;;;;;;5046457;28;20210;-54
2022/05/20 03:53:36;;;;;;;9.20;7.07;;;13.60;99.90;;;;;;5047968;28;20718;-53
2022/05/20 03:56:03;;;;;;;8.93;7.90;;;13.60;99.90;;;;;;5049488;28;20206;-55
2022/05/20 03:58:31;;;;;;;9.17;6.50;;;13.60;99.90;;;;;;5047709;28;20206;-51
2022/05/20 04:03:45;;;;;;;11.20;6.93;;;13.70;99.90;;;;;;5045016;28;20175;-48
2022/05/20 04:06:11;;;;;;;9.90;6.30;;;13.70;99.90;;;;;;5053194;28;20213;-49
2022/05/20 04:08:39;;;;;;;9.07;5.93;;;13.70;99.90;;;;;;5046582;28;20215;-55
2022/05/20 04:11:11;;;;;;;8.67;5.27;;;13.70;99.90;;;;;;5054028;28;20199;-52
2022/05/20 04:13:39;;;;;;;8.07;5.67;;;13.70;99.90;;;;;;5043647;28;20219;-52
2022/05/20 04:16:06;;;;;;;9.23;5.60;;;13.70;99.90;;;;;;5052942;28;20198;-50
2022/05/20 04:18:33;;;;;;;5.00;4.50;;;13.70;99.90;;;;;;5051178;28;20248;-50
2022/05/20 04:21:02;;;;;;;5.87;4.57;;;13.70;99.90;;;;;;5051680;28;20209;-51
2022/05/20 04:23:29;;;;;;;5.60;4.10;;;13.70;99.90;;;;;;5042014;28;20218;-56
2022/05/20 04:25:56;;;;;;;8.47;4.20;;;13.70;99.90;;;;;;5050223;28;20191;-49
2022/05/20 04:28:22;;;;;;;7.53;3.87;;;13.80;99.90;;;;;;5044025;28;20297;-56
2022/05/20 04:30:52;;;;;;;5.47;4.10;;;13.80;99.90;;;;;;5048511;28;20191;-55
2022/05/20 04:33:18;;;;;;;5.80;3.77;;;13.80;99.90;;;;;;5047702;28;20211;-53
2022/05/20 04:35:45;;;;;;;6.17;4.63;;;13.80;99.90;;;;;;5046309;28;20210;-52
2022/05/20 04:38:14;;;;;;;5.87;4.43;;;13.80;99.90;;;;;;5037786;28;20589;-54
2022/05/20 04:40:40;;;;;;;4.70;4.17;;;13.90;99.90;;;;;;5042367;28;20841;-48
2022/05/20 04:48:37;;;;;;;8.33;4.17;;;13.80;99.90;;;;;;5043642;28;20279;-50
2022/05/20 04:51:05;;;;;;;6.27;4.03;;;13.80;99.90;;;;;;5055339;28;20555;-51
2022/05/20 04:56:17;;;;;;;5.73;4.03;;;13.90;99.90;;;;;;5048204;28;20293;-52
2022/05/20 04:58:45;;;;;;;6.93;4.47;;;13.90;99.90;;;;;;5040529;28;20659;-52
2022/05/20 05:01:12;;;;;;;7.37;4.20;;;14.00;99.90;;;;;;5046566;28;20203;-53
2022/05/20 05:03:39;;;;;;;6.00;3.90;;;14.00;99.90;;;;;;5051940;28;20194;-49
2022/05/20 05:06:06;;;;;;;6.30;4.50;;;14.00;99.90;;;;;;5052191;28;20209;-54
2022/05/20 05:08:34;;;;;;;7.77;4.50;;;14.00;99.90;;;;;;5033441;28;21084;-53
2022/05/20 05:11:01;;;;;;;6.37;4.57;;;14.00;99.90;;;;;;5048082;28;20211;-51
2022/05/20 05:13:28;;;;;;;9.03;4.90;;;14.10;99.90;;;;;;5040972;28;20902;-53
2022/05/20 05:15:55;;;;;;;4.70;3.97;;;14.10;99.90;;;;;;5058989;28;20482;-54
2022/05/20 05:18:25;;;;;;;9.80;4.17;;;14.10;99.90;;;;;;5049557;28;20195;-51
2022/05/20 05:20:52;;;;;;;5.13;4.17;;;14.20;99.90;;;;;;5049244;28;20199;-50
2022/05/20 05:23:20;;;;;;;7.10;4.40;;;14.20;99.90;;;;;;5034252;28;20695;-52
2022/05/20 05:25:49;;;;;;;6.10;4.27;;;14.30;99.90;;;;;;5050104;28;20198;-53
2022/05/20 05:28:16;;;;;;;8.90;4.10;;;14.30;99.90;;;;;;5046493;28;20223;-54
2022/05/20 05:30:46;;;;;;;9.23;3.90;;;14.40;99.90;;;;;;5046680;28;20278;-48
2022/05/20 05:33:13;;;;;;;8.33;4.43;;;14.40;99.90;;;;;;5046896;28;20229;-52
2022/05/20 05:35:40;;;;;;;5.80;4.00;;;14.40;99.90;;;;;;5047755;28;20264;-51
2022/05/20 05:38:08;;;;;;;4.93;3.60;;;14.40;99.90;;;;;;5048547;28;20709;-53
2022/05/20 05:40:34;;;;;;;6.23;3.60;;;14.40;99.90;;;;;;5046212;28;20194;-52
2022/05/20 05:43:04;;;;;;;8.20;4.20;;;14.50;99.90;;;;;;5052317;28;20661;-51
2022/05/20 05:45:34;;;;;;;8.70;3.30;;;14.50;99.90;;;;;;5044808;28;20202;-54
2022/05/20 05:48:04;;;;;;;4.10;3.20;;;14.50;99.90;;;;;;5058530;28;20206;-49
2022/05/20 05:50:33;;;;;;;4.20;3.80;;;14.50;99.90;;;;;;5054506;28;20179;-52
2022/05/20 05:53:02;;;;;;;6.07;2.53;;;14.60;99.90;;;;;;5052805;28;20206;-49
2022/05/20 05:55:29;;;;;;;5.43;3.23;;;14.50;99.90;;;;;;5035573;28;20273;-54
2022/05/20 05:57:56;;;;;;;5.20;2.93;;;14.50;99.90;;;;;;5056071;28;20214;-48
2022/05/20 06:00:25;;;;;;;5.33;2.67;;;14.50;99.90;;;;;;5050986;28;20217;-57
2022/05/20 06:02:53;;;;;;;3.80;2.67;;;14.50;99.90;;;;;;5047947;28;20676;-55
2022/05/20 06:05:21;;;;;;;5.43;2.93;;;14.50;99.90;;;;;;5051270;28;20520;-55
2022/05/20 06:07:48;;;;;;;4.73;2.90;;;14.50;99.90;;;;;;5051486;28;20219;-52
2022/05/20 06:10:15;;;;;;;7.43;3.40;;;14.50;99.90;;;;;;5039943;28;20222;-57
2022/05/20 06:12:42;;;;;;;6.33;3.20;;;14.60;99.90;;;;;;5053518;28;20202;-57
2022/05/20 06:15:13;;;;;;;6.07;2.83;;;14.60;99.90;;;;;;5045733;28;20553;-56
2022/05/20 06:17:41;;;;;;;7.63;3.27;;;14.70;99.90;;;;;;5050444;28;20216;-56
2022/05/20 06:20:09;;;;;;;6.63;2.87;;;14.70;99.90;;;;;;5055787;28;20667;-53
2022/05/20 06:22:36;;;;;;;6.77;3.23;;;14.60;99.90;;;;;;5049285;28;20195;-51
2022/05/20 06:25:05;;;;;;;4.13;2.70;;;14.70;99.90;;;;;;5050171;28;20554;-51
2022/05/20 06:27:33;;;;;;;10.67;3.00;;;14.70;99.90;;;;;;5031848;28;20222;-52
2022/05/20 06:29:59;;;;;;;4.07;2.40;;;14.70;99.90;;;;;;5058788;28;20210;-53
2022/05/20 06:32:26;;;;;;;6.77;2.47;;;14.70;99.90;;;;;;5045346;28;20203;-52
2022/05/20 06:40:23;;;;;;;6.53;2.40;;;14.70;99.90;;;;;;5044881;28;20191;-56
2022/05/20 06:42:50;;;;;;;3.97;1.87;;;14.70;99.90;;;;;;5051899;28;20195;-54
2022/05/20 06:45:18;;;;;;;3.23;1.43;;;14.70;99.90;;;;;;5052957;28;20207;-54
2022/05/20 06:47:44;;;;;;;4.40;1.67;;;14.70;99.90;;;;;;5051917;28;20573;-55
2022/05/20 06:50:14;;;;;;;3.80;2.20;;;14.60;99.90;;;;;;5054650;28;20194;-50
2022/05/20 06:52:40;;;;;;;5.87;2.40;;;14.80;99.90;;;;;;5051642;28;20281;-54
2022/05/20 06:55:08;;;;;;;5.47;2.03;;;14.90;99.90;;;;;;5051472;28;20204;-54
2022/05/20 06:57:38;;;;;;;5.53;2.27;;;15.00;99.90;;;;;;5045858;28;20234;-56
2022/05/20 07:00:06;;;;;;;3.23;2.10;;;15.00;99.90;;;;;;5037747;28;20242;-53
2022/05/20 07:02:33;;;;;;;6.37;2.67;;;15.00;99.90;;;;;;5046621;28;21118;-56
2022/05/20 07:05:03;;;;;;;6.07;2.27;;;15.00;99.90;;;;;;5057918;28;20270;-55
2022/05/20 07:07:32;;;;;;;6.23;2.30;;;15.00;99.90;;;;;;5049903;28;20497;-52
2022/05/20 07:09:58;;;;;;;3.57;2.30;;;15.00;99.90;;;;;;5059638;28;20251;-54
2022/05/20 07:12:25;;;;;;;3.67;2.10;;;15.10;99.90;;;;;;5033189;28;20206;-53
2022/05/20 07:14:51;;;;;;;5.57;2.33;;;15.00;99.90;;;;;;5057768;28;20195;-54
2022/05/20 07:17:20;;;;;;;4.63;1.93;;;15.00;99.90;;;;;;5056839;28;20218;-51
2022/05/20 07:19:50;;;;;;;8.60;2.10;;;15.00;99.90;;;;;;5058800;28;21966;-55
2022/05/20 07:22:17;;;;;;;2.30;1.80;;;15.10;99.90;;;;;;5052347;28;20202;-50
2022/05/20 07:24:45;;;;;;;5.83;2.20;;;15.20;99.90;;;;;;5050373;28;20204;-55
2022/05/20 07:27:12;;;;;;;4.27;1.90;;;15.20;99.90;;;;;;5039018;28;20235;-51
2022/05/20 07:29:39;;;;;;;4.07;1.63;;;15.20;99.90;;;;;;5051428;28;20223;-56
2022/05/20 07:32:07;;;;;;;6.93;1.77;;;15.10;99.90;;;;;;5050072;28;20214;-50
2022/05/20 07:34:34;;;;;;;5.53;1.80;;;15.20;99.90;;;;;;5051928;28;20229;-58
2022/05/20 07:37:00;;;;;;;5.17;1.70;;;15.20;99.90;;;;;;5048167;28;20275;-67
2022/05/20 07:39:27;;;;;;;4.40;1.73;;;15.20;99.90;;;;;;5053418;28;20187;-50
2022/05/20 07:41:55;;;;;;;3.67;1.60;;;15.30;99.90;;;;;;5041631;28;20217;-53
2022/05/20 07:44:22;;;;;;;8.27;1.73;;;15.40;99.90;;;;;;5057358;28;20195;-53
2022/05/20 07:46:49;;;;;;;5.53;1.67;;;15.40;99.90;;;;;;5048255;28;20227;-50
2022/05/20 07:49:16;;;;;;;3.00;1.77;;;15.50;99.90;;;;;;5047264;28;20218;-46
2022/05/20 07:51:48;;;;;;;3.67;1.87;;;15.60;99.90;;;;;;5053693;28;20252;-52
2022/05/20 07:54:20;;;;;;;3.87;1.70;;;15.60;99.90;;;;;;5050564;28;20191;-45
2022/05/20 07:56:54;;;;;;;3.60;1.47;;;15.60;99.90;;;;;;5035672;28;20715;-53
2022/05/20 07:59:27;;;;;;;5.40;1.57;;;15.60;99.90;;;;;;5052798;28;20267;-48
2022/05/20 08:01:55;;;;;;;3.17;1.60;;;15.70;99.90;;;;;;5053260;28;20186;-52
2022/05/20 08:07:11;;;;;;;3.83;1.50;;;15.60;99.90;;;;;;5057624;28;20221;-49
2022/05/20 08:09:38;;;;;;;2.40;1.40;;;15.50;99.90;;;;;;5047511;28;20692;-51
2022/05/20 08:12:05;;;;;;;3.87;1.43;;;15.60;99.90;;;;;;5049450;28;20580;-54
2022/05/20 08:14:33;;;;;;;6.67;1.83;;;15.80;99.90;;;;;;5045108;28;20202;-53
2022/05/20 08:17:01;;;;;;;2.53;1.60;;;15.70;99.90;;;;;;5045190;28;20800;-49
2022/05/20 08:19:28;;;;;;;4.33;1.40;;;15.60;99.90;;;;;;5040792;28;20203;-47
2022/05/20 08:21:55;;;;;;;3.97;1.77;;;15.60;99.90;;;;;;5051843;28;20210;-52
2022/05/20 08:24:22;;;;;;;2.47;1.60;;;15.60;99.90;;;;;;5057352;28;20286;-46
2022/05/20 08:26:50;;;;;;;4.27;2.20;;;15.70;99.90;;;;;;5047542;28;20219;-53
2022/05/20 08:29:16;;;;;;;1.67;1.20;;;15.90;99.90;;;;;;5042685;28;20215;-49
2022/05/20 08:31:46;;;;;;;2.37;1.30;;;16.10;99.90;;;;;;5053168;28;20711;-49
2022/05/20 08:34:13;;;;;;;3.53;1.40;;;16.10;99.90;;;;;;5044222;28;20207;-49
2022/05/20 08:36:40;;;;;;;6.70;1.60;;;16.10;99.90;;;;;;5051752;28;20214;-51
2022/05/20 08:39:12;;;;;;;1.40;1.30;;;16.00;99.90;;;;;;5050820;28;20270;-54
2022/05/20 08:41:42;;;;;;;4.20;1.47;;;15.90;99.90;;;;;;5050371;28;20207;-51
2022/05/20 08:44:12;;;;;;;3.70;1.47;;;15.90;99.90;;;;;;5035040;28;21841;-54
2022/05/20 08:46:40;;;;;;;3.70;1.40;;;16.00;99.90;;;;;;5065418;28;20544;-47
2022/05/20 08:49:11;;;;;;;7.77;1.83;;;16.00;99.90;;;;;;5041014;28;20995;-53
2022/05/20 08:51:41;;;;;;;4.30;1.67;;;16.10;99.90;;;;;;5054736;28;20252;-54
2022/05/20 08:54:09;;;;;;;7.70;2.27;;;16.20;99.90;;;;;;5053876;28;20274;-49
2022/05/20 08:56:38;;;;;;;3.40;1.23;;;16.30;99.90;;;;;;5054136;28;20214;-52
2022/05/20 08:59:08;;;;;;;3.67;1.47;;;16.30;99.90;;;;;;5039940;28;20476;-56
2022/05/20 09:01:38;;;;;;;2.77;1.30;;;16.40;99.90;;;;;;5058081;28;20532;-54
2022/05/20 09:04:05;;;;;;;4.00;1.73;;;16.50;99.90;;;;;;5049859;28;20839;-54
2022/05/20 09:06:38;;;;;;;2.37;1.57;;;16.60;99.90;;;;;;5043568;28;20227;-53
2022/05/20 09:09:09;;;;;;;2.47;1.70;;;16.60;99.90;;;;;;5049627;28;20231;-50
2022/05/20 09:11:37;;;;;;;1.80;1.50;;;16.40;99.90;;;;;;5046804;28;20290;-50
2022/05/20 09:16:59;;;;;;;3.10;1.90;;;16.50;99.90;;;;;;5044640;28;20687;-54
2022/05/20 09:19:28;;;;;;;5.57;2.00;;;16.40;99.90;;;;;;5055131;28;20200;-51
2022/05/20 09:22:04;;;;;;;9.40;2.37;;;16.60;99.90;;;;;;5047256;28;20253;-54
2022/05/20 09:24:38;;;;;;;2.63;1.80;;;16.70;99.90;;;;;;5051831;28;20205;-51
2022/05/20 09:27:07;;;;;;;2.67;2.07;;;16.80;99.90;;;;;;5053146;28;20758;-52
2022/05/20 09:29:39;;;;;;;4.30;2.03;;;17.00;99.90;;;;;;5055508;28;20215;-52
2022/05/20 09:32:15;;;;;;;2.73;2.20;;;16.90;99.90;;;;;;5036791;28;20209;-49
2022/05/20 09:34:43;;;;;;;3.30;1.87;;;16.80;99.90;;;;;;5051874;28;20209;-50
2022/05/20 09:37:20;;;;;;;3.77;2.20;;;16.80;99.90;;;;;;5047873;28;21033;-50
2022/05/20 09:39:50;;;;;;;3.17;2.10;;;16.80;99.90;;;;;;5053885;28;20222;-55
2022/05/20 09:42:18;;;;;;;2.83;2.00;;;16.80;99.90;;;;;;5051489;28;20286;-51
2022/05/20 09:44:47;;;;;;;3.33;1.73;;;16.90;99.90;;;;;;5051423;28;20199;-52
2022/05/20 09:47:23;;;;;;;4.47;2.00;;;17.10;99.90;;;;;;5043563;28;20245;-50
2022/05/20 09:49:53;;;;;;;4.77;2.00;;;17.10;99.90;;;;;;5048671;28;20215;-55
2022/05/20 09:52:31;;;;;;;3.00;1.97;;;17.20;99.90;;;;;;5043998;28;20202;-52
2022/05/20 09:55:02;;;;;;;5.27;2.00;;;17.20;99.90;;;;;;5050013;28;20236;-50
2022/05/20 09:57:36;;;;;;;6.43;2.43;;;17.30;99.90;;;;;;5044818;28;20773;-49
2022/05/20 10:00:09;;;;;;;4.20;2.20;;;17.30;99.90;;;;;;5044682;28;20273;-52
2022/05/20 10:02:45;;;;;;;5.73;2.90;;;17.20;99.90;;;;;;5038186;28;20210;-49
2022/05/20 10:05:19;;;;;;;3.37;2.50;;;17.20;99.90;;;;;;5050869;28;20405;-51
2022/05/20 10:08:11;;;;;;;5.53;2.43;;;17.10;99.90;;;;;;5046209;28;20241;-50
2022/05/20 10:10:51;;;;;;;5.40;2.20;;;17.20;99.90;;;;;;5051306;28;20561;-49
2022/05/20 10:13:33;;;;;;;3.70;2.00;;;17.30;99.90;;;;;;5052051;28;20281;-53
2022/05/20 10:16:10;;;;;;;3.93;1.97;;;17.40;99.90;;;;;;5046680;28;20194;-55
2022/05/20 10:18:46;;;;;;;4.97;2.23;;;17.50;99.90;;;;;;5044288;28;20214;-49
2022/05/20 10:21:21;;;;;;;4.47;2.10;;;17.50;99.90;;;;;;5044090;28;20214;-51
2022/05/20 10:23:59;;;;;;;6.70;1.97;;;17.50;99.90;;;;;;5054835;28;20244;-51
2022/05/20 10:26:36;;;;;;;5.10;1.60;;;17.50;99.90;;;;;;5053530;28;20214;-52
2022/05/20 10:34:46;;;;;;;4.13;2.57;;;17.90;99.90;;;;;;5046817;28;20680;-49
2022/05/20 10:37:24;;;;;;;4.00;2.70;;;17.90;99.90;;;;;;5042526;28;20311;-46
2022/05/20 10:40:11;;;;;;;4.90;2.87;;;18.00;99.90;;;;;;5043365;28;20195;-54
2022/05/20 10:42:55;;;;;;;4.70;2.40;;;17.80;99.90;;;;;;5048846;28;20209;-54
2022/05/20 10:48:39;;;;;;;6.07;2.10;;;18.00;99.90;;;;;;5052899;28;20210;-51
2022/05/20 10:51:19;;;;;;;3.17;2.37;;;18.10;99.90;;;;;;5035962;28;20243;-53
2022/05/20 10:53:57;;;;;;;3.23;2.60;;;18.30;99.90;;;;;;5051636;28;20867;-52
2022/05/20 10:56:40;;;;;;;8.13;2.83;;;18.20;99.90;;;;;;5057286;28;20206;-51
2022/05/20 10:59:35;;;;;;;4.00;2.10;;;18.20;99.90;;;;;;5045131;28;20861;-50
2022/05/20 11:02:17;;;;;;;6.83;2.87;;;18.20;99.90;;;;;;5044145;28;20200;-54
2022/05/20 11:05:02;;;;;;;3.77;3.40;;;18.20;99.90;;;;;;5056500;28;20214;-52
2022/05/20 11:08:03;;;;;;;3.27;2.77;;;18.20;99.90;;;;;;5054486;28;21802;-50
2022/05/20 11:10:56;;;;;;;4.03;2.57;;;18.20;99.90;;;;;;4999223;28;20760;-52
2022/05/20 11:13:39;;;;;;;4.57;3.00;;;18.20;99.90;;;;;;5047257;28;20209;-50
2022/05/20 11:16:37;;;;;;;4.67;2.47;;;18.20;99.90;;;;;;5051042;28;20194;-50
2022/05/20 11:19:30;;;;;;;5.50;3.30;;;18.30;99.90;;;;;;5049197;28;20541;-51
2022/05/20 11:22:11;;;;;;;7.30;2.90;;;18.20;99.90;;;;;;5038177;28;20703;-51
2022/05/20 11:25:09;;;;;;;5.20;2.63;;;18.30;99.90;;;;;;5051401;28;20198;-51
2022/05/20 11:27:55;;;;;;;4.40;2.30;;;18.40;99.90;;;;;;5051359;28;20214;-47
2022/05/20 11:30:32;;;;;;;3.63;2.10;;;18.70;99.90;;;;;;5048731;28;20912;-50
2022/05/20 11:33:30;;;;;;;5.73;1.87;;;18.80;99.90;;;;;;5053957;28;20226;-49
2022/05/20 11:36:15;;;;;;;5.57;2.73;;;18.90;99.90;;;;;;5043093;28;20195;-57
2022/05/20 11:39:18;;;;;;;5.30;2.03;;;18.90;99.90;;;;;;5047585;28;20218;-55
2022/05/20 11:41:51;;;;;;;7.03;2.30;;;19.10;99.90;;;;;;5052181;28;20185;-51
2022/05/20 11:44:43;;;;;;;3.43;2.30;;;19.20;99.90;;;;;;5050674;28;20195;-50
2022/05/20 11:47:26;;;;;;;4.07;2.40;;;19.30;99.90;;;;;;5048316;28;20325;-53
2022/05/20 11:50:06;;;;;;;3.77;2.00;;;19.40;99.90;;;;;;5051572;28;20510;-47
2022/05/20 11:52:49;;;;;;;5.57;2.13;;;19.50;99.90;;;;;;5041007;28;20206;-51
2022/05/20 11:55:20;;;;;;;3.73;2.43;;;19.50;99.90;;;;;;5047971;28;20571;-48
2022/05/20 11:57:52;;;;;;;5.60;2.50;;;19.60;99.90;;;;;;5047124;28;20218;-50
2022/05/20 12:00:21;;;;;;;4.40;2.77;;;19.80;99.90;;;;;;5060333;28;20188;-51
2022/05/20 12:02:54;;;;;;;4.43;2.50;;;19.90;99.90;;;;;;5054490;28;20269;-53
2022/05/20 12:05:24;;;;;;;4.63;1.80;;;20.00;99.90;;;;;;5046946;28;20214;-48
2022/05/20 12:07:51;;;;;;;2.97;1.70;;;20.20;99.90;;;;;;5036758;28;20215;-47
2022/05/20 12:10:45;;;;;;;4.03;2.20;;;20.30;99.90;;;;;;5051615;28;20549;-55
2022/05/20 12:13:19;;;;;;;7.77;2.37;;;20.10;99.90;;;;;;5047186;28;20199;-48
2022/05/20 12:16:09;;;;;;;4.10;1.57;;;20.10;99.90;;;;;;5051502;28;20189;-51
2022/05/20 12:24:35;;;;;;;6.27;1.80;;;20.20;99.90;;;;;;5041547;28;20207;-49
2022/05/20 12:27:10;;;;;;;5.17;1.70;;;20.20;99.80;;;;;;5053146;28;20211;-53
2022/05/20 12:30:25;;;;;;;5.20;1.90;;;20.10;99.90;;;;;;5046485;28;20221;-50
2022/05/20 12:32:53;;;;;;;3.50;1.97;;;20.00;98.70;;;;;;5051120;28;20513;-54
2022/05/20 12:35:29;;;;;;;2.97;1.90;;;20.00;99.10;;;;;;5055403;28;20203;-51
2022/05/20 12:38:24;;;;;;;3.50;1.70;;;20.00;98.40;;;;;;5048280;28;20221;-50
2022/05/20 12:40:56;;;;;;;2.87;1.77;;;20.10;98.60;;;;;;5039672;28;20212;-53
2022/05/20 12:43:56;;;;;;;3.30;1.70;;;20.20;98.80;;;;;;5052768;28;20286;-52
2022/05/20 12:46:42;;;;;;;5.67;2.17;;;20.30;98.30;;;;;;5051693;28;20756;-50
2022/05/20 12:49:09;;;;;;;3.70;2.07;;;20.40;99.40;;;;;;5049795;28;20620;-51
2022/05/20 12:51:44;;;;;;;4.03;1.90;;;20.50;98.60;;;;;;5056196;28;20244;-52
2022/05/20 12:54:20;;;;;;;3.63;1.70;;;20.30;98.90;;;;;;5043000;28;20660;-51
2022/05/20 12:56:47;;;;;;;3.67;1.70;;;20.40;98.50;;;;;;5045645;28;20222;-52
2022/05/20 12:59:23;;;;;;;4.50;2.07;;;20.50;99.40;;;;;;5051497;28;20664;-53
2022/05/20 13:01:56;;;;;;;4.83;1.70;;;20.50;99.90;;;;;;5047139;28;20198;-54
2022/05/20 13:04:24;;;;;;;3.43;1.97;;;20.80;99.20;;;;;;5053207;28;20603;-52
2022/05/20 13:06:52;;;;;;;6.07;1.70;;;20.90;98.70;;;;;;5048328;28;20367;-50
2022/05/20 13:09:28;;;;;;;2.03;1.50;;;21.00;98.60;;;;;;5056479;28;20191;-50
2022/05/20 13:12:03;;;;;;;3.37;2.17;;;21.00;96.90;;;;;;5043312;28;20195;-52
2022/05/20 13:14:31;;;;;;;2.20;2.00;;;21.00;97.40;;;;;;5051302;28;20255;-56
2022/05/20 13:17:01;;;;;;;2.60;1.70;;;21.20;97.40;;;;;;5049918;28;20209;-55
2022/05/20 13:19:42;;;;;;;5.67;2.20;;;21.50;97.00;;;;;;5053464;28;20195;-53
2022/05/20 13:22:13;;;;;;;2.73;2.23;;;21.80;96.10;;;;;;5041656;28;20203;-48
2022/05/20 13:24:41;;;;;;;3.03;1.87;;;22.00;94.70;;;;;;5045626;28;20241;-53
2022/05/20 13:27:12;;;;;;;2.10;1.90;;;22.20;94.90;;;;;;5039204;28;20226;-53
2022/05/20 13:29:43;;;;;;;6.00;2.25;;;22.70;95.50;;;;;;5042747;28;20903;-52
2022/05/20 13:32:24;;;;;;;3.85;1.92;;;23.10;93.50;;;;;;5042461;28;20195;-53
2022/05/20 13:34:53;;;;;;;4.13;1.70;;;23.50;93.00;;;;;;5060077;28;20217;-51
2022/05/20 13:37:25;;;;;;;1.92;1.73;;;23.70;92.10;;;;;;5043069;28;20250;-52
2022/05/20 13:39:55;;;;;;;4.05;1.80;;;23.50;91.60;;;;;;5040977;28;20199;-50
2022/05/20 13:42:24;;;;;;;3.40;1.63;;;24.00;91.40;;;;;;5038325;28;20195;-52
2022/05/20 13:44:53;;;;;;;2.88;1.63;;;24.40;90.00;;;;;;5046767;28;20205;-51